createdAt,value
2023-02-06T00:00:48.289Z,153.32
2023-02-06T00:03:15.265Z,60.88
2023-02-06T00:05:41.868Z,61.97
2023-02-06T00:08:08.487Z,60.10
2023-02-06T00:10:35.248Z,61.67
2023-02-06T00:13:01.833Z,67.93
2023-02-06T00:15:28.422Z,69.35
2023-02-06T00:17:55.009Z,71.43
2023-02-06T00:20:21.700Z,76.43
2023-02-06T00:22:48.248Z,76.72
2023-02-06T00:25:14.817Z,101.45
2023-02-06T00:27:41.502Z,88.22
2023-02-06T00:30:08.408Z,93.15
2023-02-06T00:32:35.273Z,89.35
2023-02-06T00:35:01.950Z,97.13
2023-02-06T00:37:28.526Z,98.93
2023-02-06T00:39:55.114Z,100.43
2023-02-06T00:42:21.674Z,104.10
2023-02-06T00:44:48.247Z,104.70
2023-02-06T00:47:14.819Z,105.82
2023-02-06T00:49:41.457Z,113.05
2023-02-06T00:52:08.046Z,103.47
2023-02-06T00:54:34.602Z,104.50
2023-02-06T00:57:01.166Z,109.03
2023-02-06T00:59:27.729Z,108.35
2023-02-06T01:01:54.382Z,94.50
2023-02-06T01:04:21.088Z,84.03
2023-02-06T01:06:47.675Z,80.97
2023-02-06T01:09:14.230Z,87.35
2023-02-06T01:11:40.796Z,94.78
2023-02-06T01:14:07.357Z,95.40
2023-02-06T01:16:33.920Z,102.70
2023-02-06T01:19:00.499Z,99.05
2023-02-06T01:21:27.067Z,98.05
2023-02-06T01:23:54.873Z,85.07
2023-02-06T01:26:26.685Z,73.65
2023-02-06T01:28:54.296Z,72.03
2023-02-06T01:31:24.066Z,69.43
2023-02-06T01:33:52.156Z,77.30
2023-02-06T01:36:20.790Z,79.50
2023-02-06T01:38:48.542Z,66.93
2023-02-06T01:41:16.940Z,71.15
2023-02-06T01:43:46.582Z,91.07
2023-02-06T01:46:13.608Z,102.10
2023-02-06T01:48:47.688Z,94.00
2023-02-06T01:51:19.708Z,85.40
2023-02-06T01:53:50.663Z,82.43
2023-02-06T01:56:19.647Z,75.13
2023-02-06T01:58:50.004Z,81.65
2023-02-06T02:01:17.073Z,85.82
2023-02-06T02:03:47.725Z,94.25
2023-02-06T02:06:18.945Z,75.95
2023-02-06T02:08:50.037Z,72.70
2023-02-06T02:11:43.279Z,75.85
2023-02-06T02:14:12.426Z,64.72
2023-02-06T02:16:57.114Z,66.18
2023-02-06T02:19:32.902Z,54.85
2023-02-06T02:22:18.486Z,54.80
2023-02-06T02:25:18.741Z,56.30
2023-02-06T02:28:19.375Z,55.20
2023-02-06T02:31:08.558Z,64.53
2023-02-06T02:34:11.949Z,80.32
2023-02-06T02:37:10.721Z,86.78
2023-02-06T02:39:40.568Z,103.07
2023-02-06T02:42:19.025Z,159.85
2023-02-06T02:45:40.634Z,120.32
2023-02-06T02:48:23.247Z,102.57
2023-02-06T02:50:50.742Z,106.63
2023-02-06T02:53:17.524Z,118.32
2023-02-06T02:55:44.186Z,105.50
2023-02-06T02:58:15.045Z,109.93
2023-02-06T03:00:47.519Z,127.25
2023-02-06T03:03:15.786Z,105.78
2023-02-06T03:06:05.113Z,99.95
2023-02-06T03:08:38.501Z,103.97
2023-02-06T03:11:17.397Z,88.43
2023-02-06T03:14:02.508Z,94.80
2023-02-06T03:16:38.014Z,82.30
2023-02-06T03:19:15.185Z,77.35
2023-02-06T03:21:43.463Z,79.28
2023-02-06T03:24:19.352Z,83.07
2023-02-06T03:26:49.167Z,79.75
2023-02-06T03:29:17.831Z,83.35
2023-02-06T03:31:49.736Z,78.63
2023-02-06T03:34:31.341Z,84.22
2023-02-06T03:36:58.062Z,76.00
2023-02-06T03:39:24.709Z,80.45
2023-02-06T03:41:52.895Z,84.70
2023-02-06T03:44:24.762Z,83.30
2023-02-06T03:46:55.710Z,86.72
2023-02-06T03:49:26.891Z,87.80
2023-02-06T03:52:06.105Z,91.30
2023-02-06T03:54:35.886Z,89.85
2023-02-06T03:57:05.371Z,90.32
2023-02-06T03:59:32.494Z,93.40
2023-02-06T04:02:02.955Z,93.07
2023-02-06T04:04:34.976Z,91.03
2023-02-06T04:07:15.774Z,93.50
2023-02-06T04:09:42.333Z,87.78
2023-02-06T04:12:09.306Z,97.20
2023-02-06T04:14:36.895Z,94.20
2023-02-06T04:17:06.854Z,102.75
2023-02-06T04:19:34.279Z,105.63
2023-02-06T04:22:02.104Z,93.25
2023-02-06T04:24:30.854Z,95.53
2023-02-06T04:26:57.636Z,105.68
2023-02-06T04:29:24.183Z,97.20
2023-02-06T04:31:51.233Z,108.20
2023-02-06T04:34:18.135Z,110.68
2023-02-06T04:36:44.774Z,99.47
2023-02-06T04:39:11.353Z,84.20
2023-02-06T04:41:37.920Z,90.15
2023-02-06T04:44:04.620Z,100.03
2023-02-06T04:46:31.407Z,102.57
2023-02-06T04:48:57.959Z,101.70
2023-02-06T04:51:24.585Z,103.85
2023-02-06T04:53:51.128Z,127.80
2023-02-06T04:56:17.764Z,114.35
2023-02-06T04:58:44.363Z,116.65
2023-02-06T05:01:11.391Z,126.30
2023-02-06T05:03:38.048Z,120.53
2023-02-06T05:06:05.497Z,124.15
2023-02-06T05:08:32.035Z,117.68
2023-02-06T05:10:58.661Z,132.80
2023-02-06T05:13:25.505Z,135.93
2023-02-06T05:15:52.140Z,138.68
2023-02-06T05:18:19.068Z,146.88
2023-02-06T05:20:45.711Z,141.45
2023-02-06T05:23:12.311Z,146.77
2023-02-06T05:25:40.796Z,134.10
2023-02-06T05:28:08.825Z,130.88
2023-02-06T05:30:36.152Z,176.25
2023-02-06T05:33:02.797Z,133.18
2023-02-06T05:35:29.666Z,146.98
2023-02-06T05:37:57.519Z,145.00
2023-02-06T05:40:24.585Z,154.82
2023-02-06T05:42:51.318Z,143.93
2023-02-06T05:45:18.034Z,151.07
2023-02-06T05:47:44.685Z,157.30
2023-02-06T05:50:11.232Z,169.38
2023-02-06T05:52:37.813Z,165.90
2023-02-06T05:55:04.820Z,146.55
2023-02-06T05:57:31.414Z,137.93
2023-02-06T05:59:58.036Z,144.00
2023-02-06T06:02:24.610Z,158.05
2023-02-06T06:04:51.345Z,153.13
2023-02-06T06:07:17.971Z,156.43
2023-02-06T06:09:44.528Z,174.00
2023-02-06T06:12:11.106Z,132.82
2023-02-06T06:14:37.780Z,145.00
2023-02-06T06:17:04.408Z,139.30
2023-02-06T06:19:31.029Z,153.48
2023-02-06T06:21:58.399Z,140.27
2023-02-06T06:24:26.443Z,137.63
2023-02-06T06:26:53.332Z,131.60
2023-02-06T06:29:19.932Z,136.13
2023-02-06T06:31:46.698Z,138.35
2023-02-06T06:34:13.266Z,150.98
2023-02-06T06:36:39.854Z,127.38
2023-02-06T06:39:06.412Z,133.43
2023-02-06T06:41:33.475Z,137.65
2023-02-06T06:44:00.775Z,126.03
2023-02-06T06:46:27.373Z,127.35
2023-02-06T06:48:53.943Z,131.07
2023-02-06T06:51:21.116Z,137.05
2023-02-06T06:53:47.724Z,131.77
2023-02-06T06:56:15.183Z,118.93
2023-02-06T06:58:42.324Z,110.78
2023-02-06T07:01:09.462Z,112.50
2023-02-06T07:03:36.737Z,120.15
2023-02-06T07:06:05.322Z,117.75
2023-02-06T07:08:31.925Z,118.35
2023-02-06T07:10:58.536Z,110.78
2023-02-06T07:13:25.301Z,114.53
2023-02-06T07:15:51.929Z,114.88
2023-02-06T07:18:18.518Z,114.13
2023-02-06T07:20:45.152Z,85.55
2023-02-06T07:23:11.776Z,89.97
2023-02-06T07:25:38.571Z,108.88
2023-02-06T07:28:05.416Z,102.32
2023-02-06T07:30:32.038Z,96.78
2023-02-06T07:32:58.671Z,101.38
2023-02-06T07:35:25.475Z,97.35
2023-02-06T07:37:55.168Z,110.00
2023-02-06T07:40:22.124Z,99.95
2023-02-06T07:42:48.711Z,114.15
2023-02-06T07:45:15.655Z,92.10
2023-02-06T07:47:42.829Z,105.53
2023-02-06T07:50:10.192Z,91.93
2023-02-06T07:52:37.403Z,78.47
2023-02-06T07:55:04.521Z,130.10
2023-02-06T07:57:31.559Z,88.97
2023-02-06T07:59:58.167Z,115.18
2023-02-06T08:02:24.991Z,110.22
2023-02-06T08:04:51.549Z,108.25
2023-02-06T08:07:18.336Z,78.25
2023-02-06T08:09:45.095Z,67.03
2023-02-06T08:12:12.140Z,61.63
2023-02-06T08:14:39.196Z,52.78
2023-02-06T08:17:05.979Z,53.97
2023-02-06T08:19:32.562Z,59.67
2023-02-06T08:21:59.147Z,68.93
2023-02-06T08:24:25.778Z,95.60
2023-02-06T08:26:52.395Z,84.05
2023-02-06T08:29:19.121Z,95.03
2023-02-06T08:31:46.074Z,98.57
2023-02-06T08:34:15.092Z,100.10
2023-02-06T08:36:43.566Z,96.35
2023-02-06T08:39:13.353Z,105.80
2023-02-06T08:41:41.309Z,89.70
2023-02-06T08:44:11.899Z,85.82
2023-02-06T08:46:39.773Z,60.92
2023-02-06T08:49:11.338Z,116.45
2023-02-06T08:51:37.942Z,78.93
2023-02-06T08:54:07.411Z,73.03
2023-02-06T08:56:35.518Z,56.90
2023-02-06T08:59:02.938Z,64.88
2023-02-06T09:01:32.002Z,82.93
2023-02-06T09:04:01.067Z,57.67
2023-02-06T09:06:28.387Z,38.45
2023-02-06T09:08:56.963Z,43.40
2023-02-06T09:11:25.537Z,55.28
2023-02-06T09:13:57.990Z,34.65
2023-02-06T09:16:26.016Z,33.42
2023-02-06T09:18:56.257Z,34.75
2023-02-06T09:21:24.991Z,26.23
2023-02-06T09:23:53.925Z,24.48
2023-02-06T09:26:24.160Z,22.63
2023-02-06T09:28:54.673Z,20.55
2023-02-06T09:31:21.235Z,21.65
2023-02-06T09:33:47.781Z,20.83
2023-02-06T09:36:17.250Z,22.27
2023-02-06T09:38:47.069Z,22.92
2023-02-06T09:41:25.300Z,21.55
2023-02-06T09:43:54.667Z,21.20
2023-02-06T09:46:28.137Z,22.05
2023-02-06T09:48:59.009Z,21.77
2023-02-06T09:51:52.165Z,22.23
2023-02-06T09:54:31.457Z,22.65
2023-02-06T09:57:21.654Z,21.75
2023-02-06T09:59:56.362Z,20.27
2023-02-06T10:04:58.640Z,21.75
2023-02-06T10:08:03.245Z,21.88
2023-02-06T10:10:55.614Z,22.17
2023-02-06T10:13:36.200Z,21.70
2023-02-06T10:16:28.085Z,21.92
2023-02-06T10:19:00.917Z,21.38
2023-02-06T10:21:43.511Z,21.58
2023-02-06T10:24:22.325Z,21.80
2023-02-06T10:26:51.934Z,21.25
2023-02-06T10:29:24.935Z,22.02
2023-02-06T10:32:15.917Z,22.02
2023-02-06T10:35:01.103Z,22.30
2023-02-06T10:37:50.504Z,22.40
2023-02-06T10:40:28.611Z,23.88
2023-02-06T10:42:59.632Z,23.85
2023-02-06T10:46:00.104Z,22.52
2023-02-06T10:48:34.552Z,23.45
2023-02-06T10:51:16.236Z,24.27
2023-02-06T10:53:54.650Z,24.58
2023-02-06T10:56:26.526Z,26.02
2023-02-06T10:59:00.281Z,25.45
2023-02-06T11:01:34.455Z,24.90
2023-02-06T11:04:15.526Z,23.75
2023-02-06T11:06:43.051Z,24.77
2023-02-06T11:09:10.359Z,23.75
2023-02-06T11:11:41.727Z,24.10
2023-02-06T11:14:17.564Z,23.38
2023-02-06T11:16:46.027Z,23.77
2023-02-06T11:19:25.385Z,23.55
2023-02-06T11:22:08.645Z,22.67
2023-02-06T11:24:39.126Z,23.25
2023-02-06T11:27:20.525Z,22.20
2023-02-06T11:29:51.968Z,22.52
2023-02-06T11:33:02.535Z,23.27
2023-02-06T11:35:30.457Z,22.88
2023-02-06T11:38:31.753Z,22.08
2023-02-06T11:41:05.938Z,22.52
2023-02-06T11:43:54.375Z,23.33
2023-02-06T11:46:29.763Z,22.45
2023-02-06T11:48:56.305Z,22.50
2023-02-06T11:51:24.290Z,24.70
2023-02-06T11:53:59.212Z,23.08
2023-02-06T11:56:26.515Z,23.13
2023-02-06T11:59:06.034Z,22.88
2023-02-06T12:01:45.114Z,22.27
2023-02-06T12:04:25.098Z,23.77
2023-02-06T12:07:19.733Z,22.42
2023-02-06T12:09:46.307Z,23.60
2023-02-06T12:12:25.632Z,23.50
2023-02-06T12:15:36.276Z,24.35
2023-02-06T12:18:02.860Z,23.08
2023-02-06T12:20:35.104Z,22.50
2023-02-06T12:23:20.573Z,22.60
2023-02-06T12:25:52.735Z,21.98
2023-02-06T12:28:47.521Z,23.23
2023-02-06T12:31:21.898Z,24.50
2023-02-06T12:36:25.789Z,23.80
2023-02-06T12:39:05.681Z,23.92
2023-02-06T12:41:40.876Z,23.73
2023-02-06T12:44:16.635Z,25.00
2023-02-06T12:46:45.212Z,24.70
2023-02-06T12:49:20.001Z,24.17
2023-02-06T12:51:52.435Z,23.70
2023-02-06T12:54:28.542Z,23.40
2023-02-06T12:57:04.181Z,24.70
2023-02-06T12:59:58.977Z,24.77
2023-02-06T13:02:52.958Z,23.52
2023-02-06T13:05:25.238Z,23.27
2023-02-06T13:07:55.312Z,23.98
2023-02-06T13:10:26.444Z,24.00
2023-02-06T13:12:55.474Z,24.85
2023-02-06T13:15:25.043Z,24.20
2023-02-06T13:17:51.877Z,24.27
2023-02-06T13:20:20.433Z,24.10
2023-02-06T13:22:50.087Z,24.40
2023-02-06T13:25:25.759Z,24.15
2023-02-06T13:27:53.945Z,24.73
2023-02-06T13:30:29.598Z,24.63
2023-02-06T13:33:17.649Z,23.65
2023-02-06T13:36:00.053Z,23.70
2023-02-06T13:38:28.583Z,24.10
2023-02-06T13:41:15.456Z,23.95
2023-02-06T13:43:55.632Z,24.40
2023-02-06T13:46:29.338Z,24.40
2023-02-06T13:49:47.935Z,24.80
2023-02-06T13:52:14.492Z,23.50
2023-02-06T13:54:56.277Z,24.60
2023-02-06T13:57:43.952Z,25.27
2023-02-06T14:00:28.840Z,26.48
2023-02-06T14:06:02.178Z,24.92
2023-02-06T14:09:08.803Z,24.02
2023-02-06T14:11:38.109Z,25.02
2023-02-06T14:14:14.755Z,24.08
2023-02-06T14:17:16.891Z,24.95
2023-02-06T14:19:48.223Z,23.95
2023-02-06T14:22:42.758Z,24.30
2023-02-06T14:25:14.522Z,23.83
2023-02-06T14:28:02.399Z,24.27
2023-02-06T14:30:38.490Z,23.65
2023-02-06T14:33:23.563Z,24.85
2023-02-06T14:36:25.145Z,24.10
2023-02-06T14:39:41.513Z,23.90
2023-02-06T14:42:24.334Z,25.17
2023-02-06T14:45:13.800Z,23.65
2023-02-06T14:47:43.202Z,25.30
2023-02-06T14:50:18.706Z,24.58
2023-02-06T14:52:49.556Z,23.60
2023-02-06T14:55:43.464Z,24.13
2023-02-06T14:58:27.475Z,24.75
2023-02-06T15:00:56.176Z,23.90
2023-02-06T15:03:27.144Z,24.80
2023-02-06T15:06:10.115Z,23.52
2023-02-06T15:08:36.802Z,25.52
2023-02-06T15:11:06.996Z,23.05
2023-02-06T15:13:35.398Z,25.20
2023-02-06T15:16:12.721Z,24.50
2023-02-06T15:18:39.328Z,23.90
2023-02-06T15:21:12.307Z,25.27
2023-02-06T15:23:50.760Z,26.10
2023-02-06T15:26:35.477Z,25.67
2023-02-06T15:29:05.201Z,26.02
2023-02-06T15:31:32.310Z,25.23
2023-02-06T15:34:01.238Z,24.40
2023-02-06T15:36:39.200Z,24.65
2023-02-06T15:39:09.588Z,24.38
2023-02-06T15:41:37.069Z,24.83
2023-02-06T15:44:32.198Z,24.50
2023-02-06T15:47:01.148Z,24.98
2023-02-06T15:49:41.497Z,23.75
2023-02-06T15:52:08.402Z,22.90
2023-02-06T15:54:35.002Z,22.42
2023-02-06T15:57:07.783Z,23.45
2023-02-06T15:59:37.263Z,22.70
2023-02-06T16:02:04.475Z,21.63
2023-02-06T16:04:37.054Z,22.60
2023-02-06T16:07:06.719Z,22.05
2023-02-06T16:09:40.906Z,21.95
2023-02-06T16:12:08.420Z,22.42
2023-02-06T16:14:38.033Z,22.15
2023-02-06T16:17:13.716Z,23.48
2023-02-06T16:19:47.878Z,24.25
2023-02-06T16:22:23.731Z,23.42
2023-02-06T16:24:53.343Z,24.25
2023-02-06T16:27:26.117Z,22.63
2023-02-06T16:29:57.413Z,22.00
2023-02-06T16:32:29.969Z,23.20
2023-02-06T16:34:56.563Z,22.75
2023-02-06T16:37:26.219Z,22.58
2023-02-06T16:39:53.533Z,22.42
2023-02-06T16:42:34.755Z,23.35
2023-02-06T16:45:08.205Z,21.15
2023-02-06T16:47:34.844Z,22.13
2023-02-06T16:50:01.566Z,22.25
2023-02-06T16:52:31.413Z,22.70
2023-02-06T16:54:59.266Z,22.60
2023-02-06T16:57:38.174Z,22.23
2023-02-06T17:00:26.618Z,23.85
2023-02-06T17:02:54.174Z,21.85
2023-02-06T17:05:23.179Z,22.52
2023-02-06T17:07:50.869Z,23.20
2023-02-06T17:10:23.975Z,22.77
2023-02-06T17:12:50.911Z,22.33
2023-02-06T17:15:19.158Z,23.00
2023-02-06T17:17:46.270Z,23.30
2023-02-06T17:20:32.726Z,23.83
2023-02-06T17:22:59.814Z,22.75
2023-02-06T17:25:26.544Z,22.98
2023-02-06T17:27:53.844Z,23.15
2023-02-06T17:30:22.966Z,21.20
2023-02-06T17:32:49.771Z,22.25
2023-02-06T17:35:16.985Z,23.33
2023-02-06T17:37:43.857Z,22.35
2023-02-06T17:40:28.762Z,23.13
2023-02-06T17:42:56.373Z,24.13
2023-02-06T17:45:23.022Z,22.83
2023-02-06T17:47:50.151Z,23.55
2023-02-06T17:50:22.099Z,23.27
2023-02-06T17:52:48.924Z,24.45
2023-02-06T17:55:16.698Z,23.45
2023-02-06T17:57:43.393Z,25.10
2023-02-06T18:00:14.783Z,23.08
2023-02-06T18:02:43.015Z,24.95
2023-02-06T18:05:09.781Z,24.63
2023-02-06T18:07:38.534Z,24.17
2023-02-06T18:10:06.486Z,24.27
2023-02-06T18:12:33.073Z,27.75
2023-02-06T18:14:59.990Z,24.63
2023-02-06T18:17:26.596Z,24.98
2023-02-06T18:19:53.165Z,24.25
2023-02-06T18:22:22.056Z,26.23
2023-02-06T18:24:50.035Z,25.02
2023-02-06T18:27:18.560Z,24.73
2023-02-06T18:29:50.156Z,23.42
2023-02-06T18:32:18.088Z,26.52
2023-02-06T18:34:44.821Z,25.58
2023-02-06T18:37:11.461Z,25.80
2023-02-06T18:39:38.709Z,27.13
2023-02-06T18:42:24.117Z,26.73
2023-02-06T18:44:50.686Z,24.65
2023-02-06T18:47:18.837Z,25.83
2023-02-06T18:49:45.576Z,24.58
2023-02-06T18:52:12.401Z,25.05
2023-02-06T18:54:39.538Z,23.85
2023-02-06T18:57:06.699Z,25.63
2023-02-06T18:59:33.928Z,25.23
2023-02-06T19:02:00.806Z,26.15
2023-02-06T19:04:27.644Z,25.88
2023-02-06T19:06:54.357Z,25.05
2023-02-06T19:09:20.984Z,24.60
2023-02-06T19:11:48.170Z,24.95
2023-02-06T19:14:17.147Z,26.20
2023-02-06T19:16:49.030Z,26.02
2023-02-06T19:19:15.784Z,27.23
2023-02-06T19:21:44.256Z,26.13
2023-02-06T19:24:13.932Z,28.10
2023-02-06T19:26:40.905Z,28.85
2023-02-06T19:29:07.965Z,29.23
2023-02-06T19:31:36.076Z,28.77
2023-02-06T19:34:02.850Z,32.15
2023-02-06T19:36:30.504Z,30.23
2023-02-06T19:39:02.854Z,30.75
2023-02-06T19:41:31.562Z,33.67
2023-02-06T19:44:02.478Z,33.92
2023-02-06T19:46:29.100Z,37.58
2023-02-06T19:48:55.891Z,37.42
2023-02-06T19:51:31.453Z,37.13
2023-02-06T19:53:59.429Z,39.17
2023-02-06T19:56:34.576Z,41.05
2023-02-06T19:59:03.656Z,42.00
2023-02-06T20:01:31.259Z,42.22
2023-02-06T20:04:00.174Z,44.50
2023-02-06T20:06:28.632Z,47.75
2023-02-06T20:08:57.107Z,45.65
2023-02-06T20:11:23.975Z,49.25
2023-02-06T20:13:52.215Z,48.35
2023-02-06T20:16:24.909Z,52.50
2023-02-06T20:18:52.062Z,51.08
2023-02-06T20:21:39.072Z,50.83
2023-02-06T20:24:10.249Z,51.47
2023-02-06T20:26:39.100Z,51.47
2023-02-06T20:29:07.641Z,50.70
2023-02-06T20:31:35.987Z,50.17
2023-02-06T20:34:03.116Z,52.17
2023-02-06T20:36:29.980Z,51.28
2023-02-06T20:38:59.827Z,53.75
2023-02-06T20:41:31.082Z,55.05
2023-02-06T20:43:59.768Z,56.53
2023-02-06T20:46:29.687Z,59.65
2023-02-06T20:49:00.986Z,64.78
2023-02-06T20:51:28.646Z,65.43
2023-02-06T20:53:55.351Z,68.75
2023-02-06T20:56:23.000Z,68.75
2023-02-06T20:58:51.032Z,68.97
2023-02-06T21:01:23.635Z,70.63
2023-02-06T21:03:52.113Z,74.72
2023-02-06T21:06:18.873Z,74.07
2023-02-06T21:08:47.651Z,73.85
2023-02-06T21:11:14.428Z,74.05
2023-02-06T21:13:41.432Z,77.93
2023-02-06T21:16:09.181Z,75.95
2023-02-06T21:18:36.883Z,77.75
2023-02-06T21:21:09.350Z,79.97
2023-02-06T21:23:37.572Z,81.50
2023-02-06T21:26:05.344Z,82.68
2023-02-06T21:28:34.028Z,82.55
2023-02-06T21:31:06.737Z,80.22
2023-02-06T21:33:34.237Z,83.63
2023-02-06T21:36:06.913Z,82.18
2023-02-06T21:38:34.863Z,88.45
2023-02-06T21:41:06.975Z,87.55
2023-02-06T21:43:34.550Z,90.45
2023-02-06T21:46:01.279Z,96.57
2023-02-06T21:48:27.996Z,90.53
2023-02-06T21:50:54.925Z,93.15
2023-02-06T21:53:22.321Z,91.13
2023-02-06T21:55:48.898Z,85.90
2023-02-06T21:58:15.675Z,96.20
2023-02-06T22:00:47.212Z,91.68
2023-02-06T22:03:14.612Z,84.18
2023-02-06T22:05:41.296Z,81.78
2023-02-06T22:08:07.920Z,73.65
2023-02-06T22:10:37.954Z,69.88
2023-02-06T22:13:05.945Z,81.25
2023-02-06T22:15:33.506Z,95.25
2023-02-06T22:18:00.321Z,72.40
2023-02-06T22:20:27.124Z,105.93
2023-02-06T22:22:54.965Z,72.43
2023-02-06T22:25:21.980Z,74.63
2023-02-06T22:27:48.617Z,70.38
2023-02-06T22:30:15.349Z,72.65
2023-02-06T22:32:41.940Z,89.53
2023-02-06T22:35:08.948Z,88.90
2023-02-06T22:37:35.751Z,84.72
2023-02-06T22:40:02.339Z,82.20
2023-02-06T22:42:28.874Z,87.53
2023-02-06T22:44:55.609Z,88.13
2023-02-06T22:47:22.250Z,88.28
2023-02-06T22:49:51.530Z,89.00
2023-02-06T22:52:36.531Z,86.45
2023-02-06T22:57:30.868Z,71.85
2023-02-06T22:59:57.444Z,81.25
2023-02-06T23:02:24.000Z,87.93
2023-02-06T23:04:50.674Z,83.00
2023-02-06T23:07:17.215Z,192.82
2023-02-06T23:09:43.759Z,88.03
2023-02-06T23:12:11.624Z,85.75
2023-02-06T23:14:38.229Z,77.07
2023-02-06T23:17:04.796Z,81.18
2023-02-06T23:19:31.677Z,73.90
2023-02-06T23:21:58.205Z,80.93
2023-02-06T23:24:24.849Z,92.30
2023-02-06T23:26:53.708Z,136.32
2023-02-06T23:29:21.869Z,102.68
2023-02-06T23:31:48.881Z,105.10
2023-02-06T23:34:17.503Z,93.78
2023-02-06T23:36:44.788Z,101.40
2023-02-06T23:39:12.063Z,89.32
2023-02-06T23:41:38.868Z,82.38
2023-02-06T23:44:07.154Z,83.55
2023-02-06T23:46:36.426Z,79.55
2023-02-06T23:49:03.336Z,87.63
2023-02-06T23:51:30.004Z,74.45
2023-02-06T23:53:56.631Z,96.18
2023-02-06T23:56:26.822Z,82.78
2023-02-06T23:58:54.881Z,76.78
